createdAt,value
2022-07-26T00:00:25.241Z,16.17
2022-07-26T00:02:27.533Z,12.20
2022-07-26T00:04:29.686Z,10.90
2022-07-26T00:06:31.781Z,11.07
2022-07-26T00:08:34.160Z,11.90
2022-07-26T00:10:44.606Z,15.47
2022-07-26T00:12:46.702Z,18.53
2022-07-26T00:14:48.809Z,11.30
2022-07-26T00:16:51.100Z,10.23
2022-07-26T00:18:53.255Z,11.00
2022-07-26T00:20:55.643Z,15.20
2022-07-26T00:22:57.758Z,11.80
2022-07-26T00:25:00.043Z,13.70
2022-07-26T00:27:02.158Z,15.33
2022-07-26T00:29:06.101Z,13.33
2022-07-26T00:31:09.236Z,12.00
2022-07-26T00:33:11.744Z,14.63
2022-07-26T00:35:14.119Z,15.20
2022-07-26T00:37:20.367Z,15.63
2022-07-26T00:39:24.493Z,13.07
2022-07-26T00:41:26.757Z,13.97
2022-07-26T00:43:29.072Z,20.87
2022-07-26T00:45:31.365Z,13.20
2022-07-26T00:47:33.937Z,14.97
2022-07-26T00:49:36.237Z,14.50
2022-07-26T00:51:38.633Z,12.07
2022-07-26T00:53:40.879Z,13.47
2022-07-26T00:55:43.023Z,18.27
2022-07-26T00:57:45.755Z,18.10
2022-07-26T00:59:48.105Z,13.73
2022-07-26T01:01:50.442Z,15.67
2022-07-26T01:03:53.976Z,15.70
2022-07-26T01:05:56.131Z,15.57
2022-07-26T01:07:58.865Z,15.43
2022-07-26T01:10:03.154Z,13.17
2022-07-26T01:12:05.569Z,17.77
2022-07-26T01:14:07.965Z,13.60
2022-07-26T01:16:10.388Z,18.13
2022-07-26T01:18:12.584Z,11.93
2022-07-26T01:20:15.133Z,13.93
2022-07-26T01:22:17.332Z,14.37
2022-07-26T01:24:19.592Z,17.80
2022-07-26T01:26:21.869Z,14.47
2022-07-26T01:28:27.957Z,16.60
2022-07-26T01:30:30.071Z,15.77
2022-07-26T01:32:32.205Z,19.07
2022-07-26T01:34:34.452Z,16.43
2022-07-26T01:36:36.676Z,17.07
2022-07-26T01:38:42.099Z,21.57
2022-07-26T01:40:44.329Z,15.50
2022-07-26T01:42:46.533Z,17.87
2022-07-26T01:44:49.414Z,15.13
2022-07-26T01:46:51.646Z,20.73
2022-07-26T01:48:53.901Z,17.63
2022-07-26T01:50:56.133Z,19.13
2022-07-26T01:52:58.279Z,19.30
2022-07-26T01:55:00.364Z,20.47
2022-07-26T01:57:02.628Z,19.87
2022-07-26T01:59:04.902Z,19.80
2022-07-26T02:01:07.796Z,22.00
2022-07-26T02:03:10.161Z,20.73
2022-07-26T02:05:12.696Z,17.83
2022-07-26T02:07:14.816Z,20.70
2022-07-26T02:09:16.993Z,20.87
2022-07-26T02:11:19.341Z,19.57
2022-07-26T02:13:21.496Z,21.37
2022-07-26T02:15:23.626Z,22.27
2022-07-26T02:17:25.819Z,23.60
2022-07-26T02:19:29.017Z,20.30
2022-07-26T02:21:31.102Z,24.03
2022-07-26T02:23:33.963Z,23.83
2022-07-26T02:25:36.027Z,20.00
2022-07-26T02:27:38.140Z,21.77
2022-07-26T02:29:40.425Z,21.50
2022-07-26T02:31:42.719Z,26.07
2022-07-26T02:33:50.777Z,23.47
2022-07-26T02:35:52.905Z,25.60
2022-07-26T02:37:54.969Z,22.13
2022-07-26T02:39:57.313Z,22.33
2022-07-26T02:42:01.673Z,25.97
2022-07-26T02:44:04.119Z,26.50
2022-07-26T02:46:06.560Z,24.93
2022-07-26T02:48:08.867Z,20.67
2022-07-26T02:50:11.062Z,30.33
2022-07-26T02:52:13.271Z,24.70
2022-07-26T02:54:15.456Z,21.80
2022-07-26T02:56:17.625Z,21.40
2022-07-26T02:58:25.024Z,18.97
2022-07-26T03:00:27.405Z,16.80
2022-07-26T03:02:29.573Z,18.53
2022-07-26T03:04:31.699Z,18.10
2022-07-26T03:06:33.879Z,20.97
2022-07-26T03:08:35.990Z,18.53
2022-07-26T03:10:39.065Z,16.97
2022-07-26T03:12:41.681Z,16.70
2022-07-26T03:14:43.834Z,14.00
2022-07-26T03:16:45.941Z,19.53
2022-07-26T03:18:48.248Z,18.80
2022-07-26T03:20:50.445Z,17.60
2022-07-26T03:22:52.618Z,18.40
2022-07-26T03:24:54.714Z,20.47
2022-07-26T03:26:57.157Z,22.03
2022-07-26T03:28:59.350Z,18.50
2022-07-26T03:31:01.678Z,15.80
2022-07-26T03:33:04.563Z,19.90
2022-07-26T03:35:07.422Z,22.57
2022-07-26T03:37:09.578Z,17.13
2022-07-26T03:39:11.724Z,14.77
2022-07-26T03:41:13.947Z,16.70
2022-07-26T03:43:17.355Z,15.93
2022-07-26T03:45:22.655Z,15.77
2022-07-26T03:47:24.959Z,16.50
2022-07-26T03:49:27.722Z,20.87
2022-07-26T03:51:29.996Z,19.57
2022-07-26T03:53:32.163Z,20.77
2022-07-26T03:55:52.680Z,20.90
2022-07-26T03:57:54.877Z,16.10
2022-07-26T03:59:57.014Z,38.10
2022-07-26T04:01:59.209Z,17.90
2022-07-26T04:04:01.715Z,13.40
2022-07-26T04:06:03.987Z,13.77
2022-07-26T04:08:06.208Z,15.73
2022-07-26T04:10:08.872Z,14.47
2022-07-26T04:12:11.044Z,15.90
2022-07-26T04:14:13.277Z,12.37
2022-07-26T04:16:15.468Z,14.17
2022-07-26T04:18:17.850Z,12.93
2022-07-26T04:20:20.013Z,20.43
2022-07-26T04:22:22.198Z,13.73
2022-07-26T04:24:25.291Z,12.83
2022-07-26T04:26:29.588Z,12.40
2022-07-26T04:28:32.019Z,18.27
2022-07-26T04:30:34.138Z,11.40
2022-07-26T04:32:36.317Z,18.30
2022-07-26T04:34:38.347Z,13.07
2022-07-26T04:36:40.421Z,18.17
2022-07-26T04:38:42.560Z,11.93
2022-07-26T04:40:44.798Z,13.83
2022-07-26T04:42:47.465Z,13.60
2022-07-26T04:44:49.490Z,13.70
2022-07-26T04:46:51.624Z,13.90
2022-07-26T04:48:53.810Z,15.50
2022-07-26T04:50:56.025Z,11.67
2022-07-26T04:52:58.516Z,10.53
2022-07-26T04:55:00.687Z,16.20
2022-07-26T04:57:02.886Z,9.13
2022-07-26T04:59:04.984Z,16.03
2022-07-26T05:01:11.153Z,15.40
2022-07-26T05:03:13.648Z,11.13
2022-07-26T05:05:16.072Z,12.73
2022-07-26T05:07:19.254Z,17.50
2022-07-26T05:09:21.323Z,9.73
2022-07-26T05:11:23.611Z,10.83
2022-07-26T05:13:29.386Z,13.13
2022-07-26T05:15:35.293Z,13.10
2022-07-26T05:17:39.656Z,15.83
2022-07-26T05:19:44.850Z,10.03
2022-07-26T05:21:49.686Z,13.07
2022-07-26T05:23:51.763Z,10.80
2022-07-26T05:25:53.989Z,9.97
2022-07-26T05:27:56.259Z,11.00
2022-07-26T05:29:58.405Z,7.90
2022-07-26T05:32:00.568Z,8.33
2022-07-26T05:34:03.773Z,9.17
2022-07-26T05:36:06.225Z,7.17
2022-07-26T05:38:08.359Z,9.27
2022-07-26T05:40:11.320Z,5.43
2022-07-26T05:42:13.470Z,5.77
2022-07-26T05:44:15.748Z,13.40
2022-07-26T05:46:17.912Z,4.77
2022-07-26T05:48:20.131Z,9.10
2022-07-26T05:50:22.495Z,8.03
2022-07-26T05:52:24.593Z,7.03
2022-07-26T05:54:26.705Z,10.50
2022-07-26T05:56:28.861Z,5.47
2022-07-26T05:58:31.034Z,6.50
2022-07-26T06:00:33.556Z,7.03
2022-07-26T06:02:35.731Z,7.67
2022-07-26T06:04:38.488Z,8.87
2022-07-26T06:06:40.655Z,9.87
2022-07-26T06:08:43.128Z,4.07
2022-07-26T06:10:46.056Z,4.03
2022-07-26T06:12:48.165Z,9.50
2022-07-26T06:14:50.324Z,5.90
2022-07-26T06:16:52.827Z,6.67
2022-07-26T06:18:54.959Z,5.53
2022-07-26T06:21:02.155Z,10.83
2022-07-26T06:23:05.197Z,5.37
2022-07-26T06:25:07.667Z,8.80
2022-07-26T06:27:09.812Z,6.33
2022-07-26T06:29:11.889Z,14.90
2022-07-26T06:31:14.142Z,7.17
2022-07-26T06:33:16.300Z,7.20
2022-07-26T06:35:18.395Z,6.50
2022-07-26T06:37:21.400Z,9.37
2022-07-26T06:39:23.629Z,6.60
2022-07-26T06:41:26.295Z,11.97
2022-07-26T06:43:28.875Z,25.77
2022-07-26T06:45:31.365Z,8.10
2022-07-26T06:47:33.953Z,6.53
2022-07-26T06:49:36.407Z,7.33
2022-07-26T06:51:38.939Z,7.33
2022-07-26T06:53:41.808Z,6.97
2022-07-26T06:55:44.025Z,7.03
2022-07-26T06:57:50.275Z,9.60
2022-07-26T06:59:52.879Z,10.77
2022-07-26T07:01:59.266Z,10.30
2022-07-26T07:04:02.565Z,13.33
2022-07-26T07:06:04.790Z,9.43
2022-07-26T07:08:07.286Z,7.40
2022-07-26T07:10:10.152Z,5.90
2022-07-26T07:12:12.286Z,7.63
2022-07-26T07:14:14.440Z,14.00
2022-07-26T07:16:16.658Z,6.20
2022-07-26T07:18:18.788Z,5.20
2022-07-26T07:20:20.939Z,6.83
2022-07-26T07:22:23.099Z,7.53
2022-07-26T07:24:25.266Z,6.40
2022-07-26T07:26:27.546Z,10.47
2022-07-26T07:28:29.992Z,6.63
2022-07-26T07:30:32.368Z,8.20
2022-07-26T07:32:34.828Z,7.40
2022-07-26T07:34:37.333Z,7.13
2022-07-26T07:36:39.432Z,3.47
2022-07-26T07:38:42.829Z,7.03
2022-07-26T07:40:45.189Z,6.13
2022-07-26T07:42:47.305Z,2.30
2022-07-26T07:44:50.299Z,4.70
2022-07-26T07:46:52.711Z,5.43
2022-07-26T07:48:54.947Z,8.03
2022-07-26T07:50:57.042Z,9.23
2022-07-26T07:52:59.442Z,2.47
2022-07-26T07:55:36.663Z,5.97
2022-07-26T07:57:27.000Z,5.70
2022-07-26T07:59:31.604Z,6.00
2022-07-26T08:01:40.296Z,10.50
2022-07-26T08:03:43.116Z,2.97
2022-07-26T08:05:52.403Z,5.73
2022-07-26T08:07:54.477Z,5.97
2022-07-26T08:09:57.249Z,1.83
2022-07-26T08:11:59.354Z,3.33
2022-07-26T08:14:02.690Z,4.13
2022-07-26T08:16:06.442Z,3.43
2022-07-26T08:18:11.812Z,4.20
2022-07-26T08:20:16.460Z,8.40
2022-07-26T08:22:18.710Z,5.13
2022-07-26T08:24:22.501Z,4.37
2022-07-26T08:26:25.074Z,4.40
2022-07-26T08:28:46.799Z,8.00
2022-07-26T08:30:49.808Z,3.40
2022-07-26T08:32:52.037Z,4.83
2022-07-26T08:34:54.640Z,5.80
2022-07-26T08:37:18.000Z,2.90
2022-07-26T08:39:20.362Z,3.90
2022-07-26T08:41:23.281Z,9.40
2022-07-26T08:43:25.677Z,2.90
2022-07-26T08:45:30.566Z,3.40
2022-07-26T08:47:37.902Z,6.23
2022-07-26T08:49:45.809Z,6.20
2022-07-26T08:51:47.924Z,4.73
2022-07-26T08:53:52.043Z,3.40
2022-07-26T08:56:07.043Z,5.93
2022-07-26T08:58:09.753Z,9.83
2022-07-26T09:00:21.142Z,4.33
2022-07-26T09:02:23.345Z,3.03
2022-07-26T09:04:32.764Z,2.60
2022-07-26T09:06:36.105Z,2.77
2022-07-26T09:08:38.258Z,2.87
2022-07-26T09:10:40.394Z,2.90
2022-07-26T09:12:42.992Z,5.93
2022-07-26T09:14:48.521Z,2.33
2022-07-26T09:16:59.470Z,3.63
2022-07-26T09:19:19.117Z,4.77
2022-07-26T09:21:39.035Z,15.40
2022-07-26T09:23:44.126Z,1.60
2022-07-26T09:25:47.181Z,7.10
2022-07-26T09:27:49.406Z,4.40
2022-07-26T09:29:53.467Z,3.57
2022-07-26T09:32:17.321Z,6.17
2022-07-26T09:34:26.264Z,6.47
2022-07-26T09:36:28.601Z,4.40
2022-07-26T09:38:42.056Z,5.10
2022-07-26T09:40:47.335Z,2.80
2022-07-26T09:42:56.573Z,2.30
2022-07-26T09:44:58.747Z,3.40
2022-07-26T09:47:01.045Z,4.93
2022-07-26T09:49:22.186Z,6.30
2022-07-26T09:51:45.885Z,3.23
2022-07-26T09:53:49.252Z,1.90
2022-07-26T09:55:51.365Z,2.10
2022-07-26T09:57:54.175Z,1.57
2022-07-26T09:59:56.956Z,2.50
2022-07-26T10:02:00.217Z,5.80
2022-07-26T10:04:02.473Z,3.90
2022-07-26T10:06:05.067Z,3.80
2022-07-26T10:08:08.243Z,3.20
2022-07-26T10:10:15.698Z,5.70
2022-07-26T10:12:17.993Z,4.67
2022-07-26T10:14:37.079Z,5.53
2022-07-26T10:16:39.178Z,3.37
2022-07-26T10:18:43.018Z,6.40
2022-07-26T10:20:52.486Z,4.27
2022-07-26T10:22:54.670Z,4.40
2022-07-26T10:24:58.887Z,3.63
2022-07-26T10:27:00.935Z,4.47
2022-07-26T10:29:25.804Z,4.00
2022-07-26T10:31:30.474Z,3.20
2022-07-26T10:33:43.592Z,2.27
2022-07-26T10:35:45.960Z,3.17
2022-07-26T10:38:04.956Z,2.87
2022-07-26T10:40:18.286Z,3.20
2022-07-26T10:42:20.554Z,2.93
2022-07-26T10:44:30.277Z,6.07
2022-07-26T10:46:32.649Z,4.80
2022-07-26T10:48:34.820Z,3.87
2022-07-26T10:50:37.042Z,2.63
2022-07-26T10:52:57.898Z,2.60
2022-07-26T10:55:00.106Z,3.00
2022-07-26T10:57:02.341Z,4.37
2022-07-26T10:59:05.252Z,2.73
2022-07-26T11:01:07.613Z,3.50
2022-07-26T11:03:11.268Z,4.53
2022-07-26T11:05:19.115Z,2.70
2022-07-26T11:07:21.277Z,4.60
2022-07-26T11:09:23.633Z,2.77
2022-07-26T11:11:30.538Z,3.83
2022-07-26T11:13:33.895Z,2.97
2022-07-26T11:15:41.567Z,3.00
2022-07-26T11:17:44.032Z,4.40
2022-07-26T11:19:46.201Z,16.13
2022-07-26T11:21:56.704Z,5.70
2022-07-26T11:24:03.623Z,4.43
2022-07-26T11:26:08.811Z,5.80
2022-07-26T11:28:10.914Z,3.83
2022-07-26T11:30:13.554Z,6.50
2022-07-26T11:32:19.094Z,3.13
2022-07-26T11:34:27.425Z,4.77
2022-07-26T11:36:38.167Z,3.50
2022-07-26T11:38:50.641Z,5.93
2022-07-26T11:40:52.704Z,2.93
2022-07-26T11:42:54.842Z,3.30
2022-07-26T11:44:56.971Z,4.17
2022-07-26T11:47:00.143Z,4.70
2022-07-26T11:49:02.813Z,3.93
2022-07-26T11:51:12.347Z,6.07
2022-07-26T11:53:23.399Z,4.97
2022-07-26T11:55:30.329Z,6.50
2022-07-26T11:57:32.898Z,3.97
2022-07-26T11:59:38.039Z,3.30
2022-07-26T12:01:40.633Z,3.10
2022-07-26T12:03:54.041Z,2.50
2022-07-26T12:06:13.926Z,5.63
2022-07-26T12:08:16.063Z,7.60
2022-07-26T12:10:18.215Z,7.20
2022-07-26T12:12:22.594Z,6.10
2022-07-26T12:14:26.147Z,5.10
2022-07-26T12:16:40.546Z,4.63
2022-07-26T12:18:51.116Z,4.83
2022-07-26T12:21:06.667Z,4.00
2022-07-26T12:23:09.573Z,5.37
2022-07-26T12:25:11.703Z,3.97
2022-07-26T12:27:20.548Z,6.90
2022-07-26T12:29:30.011Z,3.10
2022-07-26T12:31:34.311Z,4.90
2022-07-26T12:33:48.265Z,8.30
2022-07-26T12:35:50.451Z,3.07
2022-07-26T12:37:53.827Z,6.13
2022-07-26T12:40:16.219Z,5.93
2022-07-26T12:42:33.583Z,3.70
2022-07-26T12:44:36.818Z,5.00
2022-07-26T12:46:39.059Z,2.70
2022-07-26T12:48:45.558Z,6.13
2022-07-26T12:50:47.721Z,2.43
2022-07-26T12:52:50.497Z,3.63
2022-07-26T12:54:53.447Z,5.03
2022-07-26T12:56:55.490Z,5.27
2022-07-26T12:59:01.990Z,3.83
2022-07-26T13:01:04.345Z,1.93
2022-07-26T13:03:06.495Z,5.07
2022-07-26T13:05:09.700Z,5.10
2022-07-26T13:07:12.067Z,3.13
2022-07-26T13:09:16.782Z,3.23
2022-07-26T13:11:19.161Z,2.60
2022-07-26T13:13:21.336Z,3.47
2022-07-26T13:15:23.558Z,4.70
2022-07-26T13:17:38.761Z,2.50
2022-07-26T13:19:41.373Z,1.70
2022-07-26T13:21:45.805Z,5.20
2022-07-26T13:23:51.299Z,5.73
2022-07-26T13:25:53.440Z,2.20
2022-07-26T13:27:56.702Z,3.10
2022-07-26T13:29:58.837Z,3.07
2022-07-26T13:32:02.460Z,5.03
2022-07-26T13:34:05.282Z,4.63
2022-07-26T13:36:07.695Z,2.47
2022-07-26T13:38:09.928Z,5.60
2022-07-26T13:40:12.296Z,3.13
2022-07-26T13:42:14.628Z,2.70
2022-07-26T13:44:16.719Z,5.10
2022-07-26T13:46:19.000Z,6.03
2022-07-26T13:48:21.288Z,3.13
2022-07-26T13:50:23.492Z,4.40
2022-07-26T13:52:25.613Z,5.13
2022-07-26T13:54:31.145Z,3.20
2022-07-26T13:56:33.297Z,3.30
2022-07-26T13:58:35.955Z,2.47
2022-07-26T14:00:38.201Z,2.90
2022-07-26T14:02:40.365Z,2.70
2022-07-26T14:04:42.693Z,3.00
2022-07-26T14:06:45.164Z,10.87
2022-07-26T14:08:47.369Z,2.00
2022-07-26T14:10:49.967Z,3.03
2022-07-26T14:12:53.442Z,2.57
2022-07-26T14:14:55.500Z,4.87
2022-07-26T14:16:57.623Z,2.17
2022-07-26T14:18:59.955Z,4.40
2022-07-26T14:21:06.249Z,2.60
2022-07-26T14:23:12.399Z,1.80
2022-07-26T14:25:14.936Z,1.70
2022-07-26T14:27:17.037Z,2.37
2022-07-26T14:29:19.186Z,3.33
2022-07-26T14:31:21.487Z,2.63
2022-07-26T14:33:23.757Z,3.20
2022-07-26T14:35:25.949Z,3.60
2022-07-26T14:37:44.402Z,3.77
2022-07-26T14:39:47.496Z,2.83
2022-07-26T14:41:49.604Z,2.37
2022-07-26T14:43:55.490Z,2.30
2022-07-26T14:45:58.058Z,1.77
2022-07-26T14:48:00.243Z,2.03
2022-07-26T14:50:06.559Z,4.70
2022-07-26T14:52:10.797Z,1.63
2022-07-26T14:54:14.471Z,2.83
2022-07-26T14:56:16.811Z,1.60
2022-07-26T14:58:19.208Z,5.20
2022-07-26T15:00:21.602Z,3.90
2022-07-26T15:02:23.934Z,1.93
2022-07-26T15:04:26.214Z,2.30
2022-07-26T15:06:28.307Z,1.97
2022-07-26T15:08:30.425Z,2.00
2022-07-26T15:10:32.768Z,3.33
2022-07-26T15:12:35.013Z,1.60
2022-07-26T15:14:37.339Z,3.30
2022-07-26T15:16:39.421Z,1.73
2022-07-26T15:18:41.605Z,1.83
2022-07-26T15:20:43.921Z,4.33
2022-07-26T15:22:47.447Z,7.57
2022-07-26T15:24:49.642Z,5.57
2022-07-26T15:26:51.815Z,2.90
2022-07-26T15:28:53.938Z,3.00
2022-07-26T15:30:56.085Z,13.30
2022-07-26T15:32:58.963Z,11.77
2022-07-26T15:35:01.223Z,3.03
2022-07-26T15:37:03.508Z,2.20
2022-07-26T15:39:16.558Z,4.57
2022-07-26T15:41:19.957Z,4.80
2022-07-26T15:43:23.898Z,2.20
2022-07-26T15:45:45.655Z,1.90
2022-07-26T15:48:01.002Z,8.03
2022-07-26T15:50:08.656Z,19.87
2022-07-26T15:52:11.549Z,37.17
2022-07-26T15:54:15.914Z,5.17
2022-07-26T15:56:18.108Z,16.43
2022-07-26T15:58:21.249Z,9.90
2022-07-26T16:00:23.385Z,1.87
2022-07-26T16:02:25.541Z,1.40
2022-07-26T16:04:27.737Z,6.03
2022-07-26T16:06:29.901Z,1.60
2022-07-26T16:08:32.081Z,1.63
2022-07-26T16:10:34.213Z,1.70
2022-07-26T16:12:36.369Z,4.90
2022-07-26T16:14:38.464Z,2.33
2022-07-26T16:16:41.048Z,1.43
2022-07-26T16:18:43.238Z,1.53
2022-07-26T16:20:46.761Z,1.97
2022-07-26T16:22:48.907Z,2.60
2022-07-26T16:24:51.083Z,1.40
2022-07-26T16:26:53.268Z,2.00
2022-07-26T16:28:55.554Z,1.93
2022-07-26T16:30:57.754Z,1.23
2022-07-26T16:33:00.766Z,47.40
2022-07-26T16:35:03.483Z,1.50
2022-07-26T16:37:05.860Z,1.40
2022-07-26T16:39:08.830Z,1.30
2022-07-26T16:41:11.181Z,2.33
2022-07-26T16:43:13.614Z,1.40
2022-07-26T16:45:15.870Z,1.97
2022-07-26T16:47:18.152Z,7.67
2022-07-26T16:49:20.470Z,1.73
2022-07-26T16:51:22.733Z,1.67
2022-07-26T16:53:24.851Z,2.37
2022-07-26T16:55:27.123Z,1.73
2022-07-26T16:57:29.243Z,1.50
2022-07-26T16:59:31.420Z,1.43
2022-07-26T17:01:33.594Z,2.37
2022-07-26T17:03:35.699Z,2.03
2022-07-26T17:05:37.896Z,1.93
2022-07-26T17:07:39.974Z,1.27
2022-07-26T17:09:42.113Z,3.10
2022-07-26T17:11:44.619Z,1.57
2022-07-26T17:13:46.741Z,1.53
2022-07-26T17:15:49.164Z,3.17
2022-07-26T17:17:51.363Z,1.60
2022-07-26T17:19:54.225Z,3.97
2022-07-26T17:21:56.458Z,2.83
2022-07-26T17:24:02.624Z,3.13
2022-07-26T17:26:07.827Z,1.40
2022-07-26T17:28:10.290Z,1.73
2022-07-26T17:30:13.236Z,1.83
2022-07-26T17:32:15.425Z,1.37
2022-07-26T17:34:17.536Z,1.93
2022-07-26T17:36:20.007Z,1.43
2022-07-26T17:38:22.125Z,1.20
2022-07-26T17:40:25.902Z,2.90
2022-07-26T17:42:29.157Z,2.57
2022-07-26T17:44:31.319Z,2.10
2022-07-26T17:46:33.942Z,1.20
2022-07-26T17:48:36.256Z,1.43
2022-07-26T17:50:38.971Z,1.10
2022-07-26T17:52:41.876Z,1.63
2022-07-26T17:54:44.076Z,2.10
2022-07-26T17:56:47.176Z,1.33
2022-07-26T17:58:49.204Z,3.10
2022-07-26T18:00:52.061Z,2.10
2022-07-26T18:02:54.364Z,1.93
2022-07-26T18:04:56.628Z,0.97
2022-07-26T18:06:58.852Z,1.73
2022-07-26T18:09:00.952Z,1.10
2022-07-26T18:11:04.911Z,1.90
2022-07-26T18:13:07.029Z,2.10
2022-07-26T18:15:09.726Z,1.30
2022-07-26T18:17:11.922Z,2.87
2022-07-26T18:19:15.154Z,2.30
2022-07-26T18:21:17.362Z,4.43
2022-07-26T18:23:19.569Z,2.33
2022-07-26T18:25:21.729Z,6.10
2022-07-26T18:27:28.343Z,2.40
2022-07-26T18:29:30.965Z,2.67
2022-07-26T18:31:33.667Z,2.17
2022-07-26T18:33:35.856Z,3.23
2022-07-26T18:35:38.471Z,1.30
2022-07-26T18:37:40.773Z,1.20
2022-07-26T18:39:43.073Z,8.03
2022-07-26T18:41:45.502Z,1.30
2022-07-26T18:43:48.348Z,1.47
2022-07-26T18:45:50.498Z,1.73
2022-07-26T18:47:52.850Z,4.10
2022-07-26T18:49:56.075Z,3.10
2022-07-26T18:52:05.868Z,1.20
2022-07-26T18:54:11.046Z,1.90
2022-07-26T18:56:13.513Z,3.27
2022-07-26T18:58:15.977Z,1.60
2022-07-26T19:00:20.725Z,3.40
2022-07-26T19:02:22.866Z,5.50
2022-07-26T19:04:25.206Z,1.43
2022-07-26T19:06:27.359Z,3.43
2022-07-26T19:08:29.498Z,4.83
2022-07-26T19:10:31.733Z,1.93
2022-07-26T19:12:33.971Z,4.37
2022-07-26T19:14:36.128Z,3.27
2022-07-26T19:16:38.368Z,1.40
2022-07-26T19:18:40.492Z,2.53
2022-07-26T19:20:50.724Z,2.60
2022-07-26T19:22:52.918Z,3.53
2022-07-26T19:24:55.043Z,1.60
2022-07-26T19:26:57.190Z,1.73
2022-07-26T19:29:00.461Z,2.67
2022-07-26T19:31:02.762Z,1.57
2022-07-26T19:33:05.069Z,1.83
2022-07-26T19:35:08.160Z,1.90
2022-07-26T19:37:10.459Z,2.00
2022-07-26T19:39:13.073Z,1.97
2022-07-26T19:41:16.104Z,1.70
2022-07-26T19:43:18.368Z,3.77
2022-07-26T19:45:21.111Z,3.20
2022-07-26T19:47:23.839Z,2.27
2022-07-26T19:49:26.189Z,2.53
2022-07-26T19:51:28.436Z,2.20
2022-07-26T19:53:30.602Z,1.60
2022-07-26T19:55:32.874Z,2.80
2022-07-26T19:57:35.308Z,3.53
2022-07-26T19:59:37.499Z,5.03
2022-07-26T20:01:39.624Z,2.70
2022-07-26T20:03:41.667Z,1.63
2022-07-26T20:05:43.637Z,2.03
2022-07-26T20:07:47.698Z,1.73
2022-07-26T20:09:50.337Z,2.23
2022-07-26T20:11:52.441Z,2.20
2022-07-26T20:13:55.418Z,2.60
2022-07-26T20:15:57.510Z,2.70
2022-07-26T20:17:59.501Z,2.80
2022-07-26T20:20:03.629Z,3.90
2022-07-26T20:22:05.935Z,3.63
2022-07-26T20:24:08.397Z,3.23
2022-07-26T20:26:11.010Z,3.10
2022-07-26T20:28:13.047Z,4.03
2022-07-26T20:30:15.386Z,1.80
2022-07-26T20:32:17.562Z,1.70
2022-07-26T20:34:19.518Z,2.00
2022-07-26T20:36:21.638Z,4.47
2022-07-26T20:38:24.177Z,2.23
2022-07-26T20:40:28.683Z,1.40
2022-07-26T20:42:30.844Z,2.27
2022-07-26T20:44:33.827Z,1.87
2022-07-26T20:46:42.531Z,1.67
2022-07-26T20:48:44.589Z,2.30
2022-07-26T20:50:46.681Z,5.33
2022-07-26T20:52:49.215Z,3.00
2022-07-26T20:54:51.200Z,3.03
2022-07-26T20:56:53.252Z,5.70
2022-07-26T20:58:55.602Z,1.90
2022-07-26T21:00:57.680Z,2.60
2022-07-26T21:02:59.840Z,2.20
2022-07-26T21:05:02.230Z,1.43
2022-07-26T21:07:04.927Z,2.67
2022-07-26T21:09:08.912Z,2.70
2022-07-26T21:11:11.726Z,4.33
2022-07-26T21:13:14.199Z,2.50
2022-07-26T21:15:16.154Z,3.37
2022-07-26T21:17:18.197Z,2.77
2022-07-26T21:19:20.512Z,2.73
2022-07-26T21:21:22.548Z,3.03
2022-07-26T21:23:24.860Z,4.10
2022-07-26T21:25:26.966Z,2.80
2022-07-26T21:27:29.006Z,1.87
2022-07-26T21:29:31.615Z,1.43
2022-07-26T21:31:40.037Z,2.13
2022-07-26T21:33:44.579Z,2.80
2022-07-26T21:35:46.637Z,3.20
2022-07-26T21:37:48.734Z,6.00
2022-07-26T21:39:50.818Z,3.90
2022-07-26T21:41:52.886Z,5.23
2022-07-26T21:43:55.004Z,8.60
2022-07-26T21:45:57.192Z,4.07
2022-07-26T21:47:59.271Z,2.80
2022-07-26T21:50:01.368Z,3.40
2022-07-26T21:52:03.886Z,5.20
2022-07-26T21:54:06.059Z,4.87
2022-07-26T21:56:08.266Z,6.93
2022-07-26T21:58:10.428Z,8.70
2022-07-26T22:00:14.546Z,3.30
2022-07-26T22:02:20.054Z,6.27
2022-07-26T22:04:24.428Z,4.87
2022-07-26T22:06:26.497Z,3.60
2022-07-26T22:08:28.458Z,6.83
2022-07-26T22:10:30.560Z,6.17
2022-07-26T22:12:32.600Z,7.10
2022-07-26T22:14:34.828Z,4.77
2022-07-26T22:16:36.903Z,8.20
2022-07-26T22:18:38.952Z,3.73
2022-07-26T22:20:41.819Z,3.90
2022-07-26T22:22:43.873Z,3.50
2022-07-26T22:24:45.910Z,4.37
2022-07-26T22:26:47.906Z,4.23
2022-07-26T22:28:50.010Z,5.90
2022-07-26T22:30:52.275Z,2.43
2022-07-26T22:32:56.531Z,5.50
2022-07-26T22:34:58.579Z,3.20
2022-07-26T22:37:00.629Z,11.20
2022-07-26T22:39:03.690Z,4.33
2022-07-26T22:41:05.676Z,4.27
2022-07-26T22:43:08.212Z,5.57
2022-07-26T22:45:10.823Z,5.13
2022-07-26T22:47:13.323Z,5.67
2022-07-26T22:49:15.528Z,5.87
2022-07-26T22:51:17.579Z,6.90
2022-07-26T22:53:19.645Z,3.47
2022-07-26T22:55:22.558Z,5.43
2022-07-26T22:57:24.553Z,2.93
2022-07-26T22:59:26.470Z,3.53
2022-07-26T23:01:29.049Z,5.33
2022-07-26T23:03:31.118Z,4.13
2022-07-26T23:05:45.619Z,4.30
2022-07-26T23:07:50.498Z,3.97
2022-07-26T23:09:52.660Z,3.47
2022-07-26T23:11:54.767Z,7.37
2022-07-26T23:13:58.888Z,7.27
2022-07-26T23:16:02.034Z,5.90
2022-07-26T23:18:04.336Z,7.20
2022-07-26T23:20:08.480Z,3.53
2022-07-26T23:22:10.697Z,5.10
2022-07-26T23:24:12.702Z,6.37
2022-07-26T23:26:14.694Z,3.93
2022-07-26T23:28:36.151Z,4.80
2022-07-26T23:30:38.666Z,5.90
2022-07-26T23:32:40.762Z,5.17
2022-07-26T23:34:43.041Z,3.80
2022-07-26T23:36:45.074Z,3.60
2022-07-26T23:38:47.148Z,5.17
2022-07-26T23:40:49.109Z,3.27
2022-07-26T23:42:51.909Z,7.37
2022-07-26T23:44:53.999Z,5.50
2022-07-26T23:46:56.655Z,3.17
2022-07-26T23:48:58.814Z,3.40
2022-07-26T23:51:00.860Z,6.40
2022-07-26T23:53:03.027Z,6.40
2022-07-26T23:55:05.388Z,3.60
2022-07-26T23:57:08.463Z,6.83
2022-07-26T23:59:10.604Z,3.13
